Mc Clure, Pennsylvania
Current Conditions -  °F | °C
As of 10:53 AM on Friday 21 Nov 2014 (Local Time) from KUNV Reporting Station
Broken Clouds Broken Clouds  
Wind Chill: 15°   Ceiling: 3200
Heat Index: 27°   Visibility: 10mi
Dew Point:   Wind: 14mph
Humidity: 47%   Direction: 300°WNW
Pressure: 30.36"   Gusts: 22mph
Location:  40.7125°N, 77.3707°W
Report Text: KUNV 211553Z 30012G19KT 10SM BKN032 M03/M13 A3036
Loading
Personal Weather Stations






























Interactive Weather Map New forecast layout! Learn more

10-Day Weather Forecast

Advertisements
Track Severe Weather on mobile